Impacts METAR Board INFO
IDs:

KEET - Alabaster/Shelby Cnt, AL, US

Updated at: 1331 UTC 21 Feb 2018
Potential Impact None Slight Moderate High
Time21/01Z 21/02Z 21/03Z 21/04Z 21/05Z 21/06Z 21/07Z 21/08Z 21/09Z 21/10Z 21/11Z 21/12Z 21/13Z
VIS 10
CIG 12
CoverOVC
FltCatMVFR
WX--
WDir150
WSpd 3
WGst --
Raw hourly METARs












KEET 211253Z AUTO 15003KT 10SM BKN012 OVC017 20/19 A3033 RMK AO2 SLP265 T02000194